Time;durP1;ratioP1;P1;durP2;ratioP2;P2;SDS_P1;SDS_P2;PMS_P1;PMS_P2;Temp;Humidity;BMP_temperature;BMP_pressure;BME280_temperature;BME280_humidity;BME280_pressure;Samples;Min_cycle;Max_cycle;Signal;HPM_P1;HPM_P2
2023/04/16 00:02:05;;;;;;;61.63;28.98;;;8.90;99.90;;;;;;5073164;28;20033;-84
2023/04/16 00:04:30;;;;;;;62.72;28.05;;;8.90;99.90;;;;;;5077090;28;20041;-85
2023/04/16 00:06:56;;;;;;;70.25;29.63;;;8.90;99.90;;;;;;5084593;28;20519;-84
2023/04/16 00:09:21;;;;;;;64.18;30.27;;;8.90;99.90;;;;;;5050393;28;20518;-84
2023/04/16 00:11:47;;;;;;;70.30;31.67;;;8.90;99.90;;;;;;5046839;28;20048;-85
2023/04/16 00:14:12;;;;;;;76.03;32.00;;;8.90;99.90;;;;;;5081740;28;20044;-85
2023/04/16 00:16:38;;;;;;;60.10;29.20;;;8.90;99.90;;;;;;5050056;28;20041;-85
2023/04/16 00:19:04;;;;;;;59.85;29.80;;;8.90;99.90;;;;;;5056511;28;20075;-85
2023/04/16 00:21:30;;;;;;;65.72;32.00;;;8.90;99.90;;;;;;5061116;28;20026;-85
2023/04/16 00:23:55;;;;;;;62.22;29.88;;;8.90;99.90;;;;;;5050281;28;20037;-85
2023/04/16 00:26:21;;;;;;;65.50;31.15;;;8.90;99.90;;;;;;5047888;28;20060;-84
2023/04/16 00:28:46;;;;;;;63.00;30.73;;;8.90;99.90;;;;;;5078553;28;20047;-84
2023/04/16 00:31:12;;;;;;;57.97;29.45;;;8.90;99.90;;;;;;5049222;28;20043;-85
2023/04/16 00:33:37;;;;;;;66.82;31.48;;;8.90;99.90;;;;;;5050088;28;20052;-85
2023/04/16 00:36:03;;;;;;;64.47;29.05;;;8.90;99.90;;;;;;5048334;28;20051;-85
2023/04/16 00:38:31;;;;;;;80.10;31.95;;;8.90;99.90;;;;;;5050378;28;20178;-85
2023/04/16 00:40:59;;;;;;;68.28;31.30;;;8.90;99.90;;;;;;5050265;28;20052;-85
2023/04/16 00:43:26;;;;;;;65.97;30.95;;;8.90;99.90;;;;;;5072460;28;20051;-85
2023/04/16 00:45:53;;;;;;;60.83;30.38;;;8.90;99.90;;;;;;5048182;28;20033;-84
2023/04/16 00:48:20;;;;;;;65.15;31.33;;;8.90;99.90;;;;;;5047168;28;20091;-84
2023/04/16 00:50:45;;;;;;;65.45;29.90;;;8.90;99.90;;;;;;5052084;28;20052;-84
2023/04/16 00:53:12;;;;;;;69.53;32.67;;;8.90;99.90;;;;;;5046823;28;20062;-85
2023/04/16 00:55:38;;;;;;;71.90;32.90;;;8.90;99.90;;;;;;5050757;28;20041;-84
2023/04/16 00:58:04;;;;;;;78.57;32.63;;;8.90;99.90;;;;;;5047800;28;20045;-84
2023/04/16 01:00:29;;;;;;;78.75;33.00;;;8.90;99.90;;;;;;5052657;28;20419;-84
2023/04/16 01:02:56;;;;;;;64.78;30.33;;;8.90;99.90;;;;;;5038898;28;20466;-85
2023/04/16 01:05:21;;;;;;;74.10;33.65;;;9.00;99.90;;;;;;5043816;28;20037;-85
2023/04/16 01:07:47;;;;;;;69.18;32.45;;;9.00;99.90;;;;;;5086237;28;20093;-84
2023/04/16 01:10:12;;;;;;;71.03;31.48;;;8.90;99.90;;;;;;5068654;28;20051;-84
2023/04/16 01:12:38;;;;;;;72.18;31.92;;;8.90;99.90;;;;;;5060621;28;20123;-84
2023/04/16 01:15:03;;;;;;;68.53;31.30;;;8.90;99.90;;;;;;5050529;28;20497;-85
2023/04/16 01:17:29;;;;;;;69.57;31.90;;;8.90;99.90;;;;;;5043208;28;20542;-85
2023/04/16 01:19:59;;;;;;;92.45;35.05;;;9.00;99.90;;;;;;5050020;28;20060;-84
2023/04/16 01:22:25;;;;;;;78.28;32.75;;;8.90;99.90;;;;;;5054071;28;20295;-85
2023/04/16 01:24:51;;;;;;;77.75;32.50;;;8.90;99.90;;;;;;5048676;28;20040;-84
2023/04/16 01:27:16;;;;;;;74.20;33.53;;;9.00;99.90;;;;;;5080210;28;20052;-85
2023/04/16 01:29:42;;;;;;;98.28;34.88;;;8.90;99.90;;;;;;5048532;28;20404;-87
2023/04/16 01:32:07;;;;;;;88.43;33.65;;;9.00;99.90;;;;;;5080590;28;20519;-84
2023/04/16 01:34:33;;;;;;;83.28;34.97;;;9.00;99.90;;;;;;5045575;28;20033;-84
2023/04/16 01:36:58;;;;;;;75.85;32.30;;;8.90;99.90;;;;;;5080763;28;20040;-84
2023/04/16 01:39:24;;;;;;;75.85;31.48;;;8.90;99.90;;;;;;5047571;28;20041;-85
2023/04/16 01:41:49;;;;;;;68.72;32.70;;;8.90;99.90;;;;;;5056879;28;20052;-85
2023/04/16 01:44:15;;;;;;;73.03;31.95;;;8.90;99.90;;;;;;5083871;28;20043;-84
2023/04/16 01:46:41;;;;;;;74.60;32.83;;;8.90;99.90;;;;;;5052686;28;20041;-85
2023/04/16 01:49:07;;;;;;;78.93;33.20;;;8.90;99.90;;;;;;5086075;28;20041;-85
2023/04/16 01:51:33;;;;;;;77.90;33.45;;;8.90;99.90;;;;;;5088850;28;20049;-85
2023/04/16 01:53:58;;;;;;;75.88;33.97;;;8.90;99.90;;;;;;5085019;28;20052;-86
2023/04/16 01:56:25;;;;;;;79.30;34.17;;;8.90;99.90;;;;;;5050390;28;20060;-85
2023/04/16 01:58:51;;;;;;;78.38;32.03;;;8.90;99.90;;;;;;5052830;28;20045;-84
2023/04/16 02:01:16;;;;;;;72.63;31.83;;;9.00;99.90;;;;;;5083164;28;20384;-84
2023/04/16 02:03:42;;;;;;;67.57;30.23;;;8.80;99.90;;;;;;5087060;28;20040;-84
2023/04/16 02:06:07;;;;;;;65.63;31.95;;;8.90;99.90;;;;;;5054323;28;20119;-84
2023/04/16 02:08:33;;;;;;;66.22;31.85;;;8.90;99.90;;;;;;5052224;28;20045;-84
2023/04/16 02:11:00;;;;;;;65.30;31.08;;;8.90;99.90;;;;;;5055938;28;20035;-84
2023/04/16 02:13:26;;;;;;;69.55;32.22;;;8.90;99.90;;;;;;5063790;28;20079;-85
2023/04/16 02:15:52;;;;;;;62.80;29.65;;;8.90;99.90;;;;;;5056327;28;20041;-84
2023/04/16 02:18:17;;;;;;;64.97;33.08;;;8.80;99.90;;;;;;5052356;28;20505;-85
2023/04/16 02:20:45;;;;;;;61.13;31.13;;;8.80;99.90;;;;;;5088799;28;20112;-84
2023/04/16 02:23:11;;;;;;;54.90;28.80;;;8.80;99.90;;;;;;5050019;28;20040;-84
2023/04/16 02:25:41;;;;;;;57.03;30.40;;;8.80;99.90;;;;;;5050873;28;20165;-85
2023/04/16 02:28:12;;;;;;;57.25;30.50;;;8.80;99.90;;;;;;5068306;28;20545;-85
2023/04/16 02:30:39;;;;;;;46.20;30.42;;;8.70;99.90;;;;;;5046305;28;20037;-85
2023/04/16 02:33:06;;;;;;;51.50;30.17;;;8.80;99.90;;;;;;5089278;28;20056;-85
2023/04/16 02:35:35;;;;;;;48.97;29.80;;;8.70;99.90;;;;;;5079696;28;20039;-84
2023/04/16 02:38:03;;;;;;;48.17;29.25;;;8.70;99.90;;;;;;5052550;28;20041;-85
2023/04/16 02:40:29;;;;;;;56.40;30.55;;;8.70;99.90;;;;;;5089108;28;20597;-84
2023/04/16 02:42:55;;;;;;;52.80;29.15;;;8.70;99.90;;;;;;5049912;28;20068;-85
2023/04/16 02:45:21;;;;;;;57.20;30.10;;;8.70;99.90;;;;;;5045713;28;20126;-86
2023/04/16 02:47:47;;;;;;;55.03;31.00;;;8.60;99.90;;;;;;5054066;28;20037;-85
2023/04/16 02:50:13;;;;;;;52.70;30.30;;;8.60;99.90;;;;;;5066702;28;21958;-87
2023/04/16 02:52:39;;;;;;;55.67;31.13;;;8.60;99.90;;;;;;5058954;28;20045;-84
2023/04/16 02:55:05;;;;;;;56.38;30.92;;;8.60;99.90;;;;;;5052171;28;20059;-85
2023/04/16 02:57:31;;;;;;;59.58;31.02;;;8.60;99.90;;;;;;5085801;28;20519;-84
2023/04/16 02:59:57;;;;;;;56.38;30.33;;;8.60;99.90;;;;;;5055270;28;20549;-84
2023/04/16 03:02:22;;;;;;;63.75;31.65;;;8.60;99.90;;;;;;5055730;28;20036;-84
2023/04/16 03:04:48;;;;;;;57.03;32.97;;;8.50;99.90;;;;;;5059020;28;20090;-84
2023/04/16 03:07:13;;;;;;;62.80;32.30;;;8.60;99.90;;;;;;5067874;28;20502;-84
2023/04/16 03:09:39;;;;;;;55.63;31.70;;;8.60;99.90;;;;;;5051363;28;20049;-84
2023/04/16 03:12:05;;;;;;;67.88;33.05;;;8.60;99.90;;;;;;5083453;28;20204;-85
2023/04/16 03:14:30;;;;;;;54.05;32.10;;;8.60;99.90;;;;;;5048669;28;20045;-84
2023/04/16 03:16:57;;;;;;;68.00;35.65;;;8.60;99.90;;;;;;5054808;28;20049;-84
2023/04/16 03:19:22;;;;;;;61.35;33.60;;;8.60;99.90;;;;;;5060300;28;20033;-85
2023/04/16 03:21:48;;;;;;;63.65;34.72;;;8.50;99.90;;;;;;5051041;28;20040;-87
2023/04/16 03:24:14;;;;;;;63.75;34.42;;;8.50;99.90;;;;;;5056188;28;20046;-84
2023/04/16 03:26:39;;;;;;;55.75;32.42;;;8.50;99.90;;;;;;5051294;28;20035;-84
2023/04/16 03:29:05;;;;;;;58.95;33.58;;;8.50;99.90;;;;;;5060216;28;20136;-84
2023/04/16 03:31:30;;;;;;;59.83;32.97;;;8.50;99.90;;;;;;5054619;28;20479;-86
2023/04/16 03:33:56;;;;;;;60.85;33.45;;;8.50;99.90;;;;;;5049019;28;20146;-84
2023/04/16 03:36:22;;;;;;;69.30;35.70;;;8.50;99.90;;;;;;5083076;28;20136;-84
2023/04/16 03:38:48;;;;;;;59.13;34.83;;;8.50;99.90;;;;;;5060277;28;20113;-84
2023/04/16 03:41:13;;;;;;;59.33;33.85;;;8.50;99.90;;;;;;5092570;28;20032;-85
2023/04/16 03:43:39;;;;;;;58.15;34.00;;;8.50;99.90;;;;;;5083786;28;20095;-85
2023/04/16 03:46:05;;;;;;;60.20;34.03;;;8.50;99.90;;;;;;5045040;28;20059;-86
2023/04/16 03:48:30;;;;;;;56.08;33.35;;;8.60;99.90;;;;;;5053894;28;20551;-84
2023/04/16 03:50:56;;;;;;;57.38;33.58;;;8.50;99.90;;;;;;5050393;28;20059;-84
2023/04/16 03:53:21;;;;;;;58.15;32.70;;;8.50;99.90;;;;;;5052120;28;20040;-85
2023/04/16 03:55:50;;;;;;;58.05;32.67;;;8.50;99.90;;;;;;5084162;28;20037;-84
2023/04/16 03:58:17;;;;;;;58.72;33.42;;;8.50;99.90;;;;;;5065245;28;20092;-85
2023/04/16 04:00:42;;;;;;;64.10;34.80;;;8.50;99.90;;;;;;5092020;28;20068;-84
2023/04/16 04:03:08;;;;;;;66.47;35.15;;;8.50;99.90;;;;;;5052982;28;20069;-86
2023/04/16 04:05:39;;;;;;;58.55;34.63;;;8.50;99.90;;;;;;5061286;28;20041;-85
2023/04/16 04:08:05;;;;;;;65.63;33.72;;;8.50;99.90;;;;;;5046225;28;20048;-84
2023/04/16 04:10:34;;;;;;;61.95;34.30;;;8.50;99.90;;;;;;5050936;28;20053;-84
2023/04/16 04:13:05;;;;;;;62.92;33.75;;;8.50;99.90;;;;;;5049543;28;20048;-87
2023/04/16 04:15:30;;;;;;;69.03;33.67;;;8.50;99.90;;;;;;5059373;28;20053;-85
2023/04/16 04:17:56;;;;;;;68.30;35.92;;;8.50;99.90;;;;;;5053514;28;20048;-84
2023/04/16 04:20:22;;;;;;;65.75;33.75;;;8.40;99.90;;;;;;5079922;28;20095;-84
2023/04/16 04:22:49;;;;;;;59.50;33.90;;;8.40;99.90;;;;;;5047486;28;20037;-83
2023/04/16 04:25:15;;;;;;;63.22;34.03;;;8.50;99.90;;;;;;5045125;28;20514;-84
2023/04/16 04:27:40;;;;;;;58.10;33.03;;;8.40;99.90;;;;;;5047860;28;20495;-84
2023/04/16 04:30:06;;;;;;;59.22;33.78;;;8.50;99.90;;;;;;5055680;28;20041;-84
2023/04/16 04:32:32;;;;;;;72.65;34.85;;;8.50;99.90;;;;;;5046130;28;20132;-84
2023/04/16 04:35:00;;;;;;;62.83;35.10;;;8.50;99.90;;;;;;5050038;28;20084;-84
2023/04/16 04:37:25;;;;;;;62.70;34.10;;;8.50;99.90;;;;;;5054671;28;20048;-84
2023/04/16 04:39:51;;;;;;;64.82;34.40;;;8.50;99.90;;;;;;5056375;28;20041;-86
2023/04/16 04:42:17;;;;;;;67.88;34.38;;;8.50;99.90;;;;;;5049511;28;20071;-86
2023/04/16 04:44:44;;;;;;;65.95;34.08;;;8.50;99.90;;;;;;5049994;28;20849;-84
2023/04/16 04:47:09;;;;;;;62.42;35.05;;;8.50;99.90;;;;;;5054187;28;20036;-85
2023/04/16 04:49:35;;;;;;;56.92;33.15;;;8.40;99.90;;;;;;5052027;28;20041;-84
2023/04/16 04:52:00;;;;;;;55.55;33.67;;;8.50;99.90;;;;;;5049258;28;20045;-84
2023/04/16 04:54:29;;;;;;;58.42;32.63;;;8.50;99.90;;;;;;5084094;28;20057;-85
2023/04/16 04:56:55;;;;;;;55.45;33.40;;;8.50;99.90;;;;;;5050311;28;20032;-84
2023/04/16 04:59:21;;;;;;;54.10;32.42;;;8.40;99.90;;;;;;5051558;28;20547;-84
2023/04/16 05:01:46;;;;;;;53.35;31.35;;;8.50;99.90;;;;;;5080271;28;20063;-84
2023/04/16 05:04:12;;;;;;;56.88;30.17;;;8.50;99.90;;;;;;5053432;28;20039;-85
2023/04/16 05:06:37;;;;;;;55.55;32.83;;;8.40;99.90;;;;;;5044534;28;20122;-84
2023/04/16 05:09:03;;;;;;;48.83;29.30;;;8.40;99.90;;;;;;5048979;28;20491;-84
2023/04/16 05:11:28;;;;;;;52.50;30.98;;;8.50;99.90;;;;;;5045549;28;20460;-86
2023/04/16 05:13:54;;;;;;;48.28;29.58;;;8.40;99.90;;;;;;5053179;28;20041;-84
2023/04/16 05:16:19;;;;;;;54.85;31.13;;;8.50;99.90;;;;;;5063082;28;20090;-84
2023/04/16 05:18:45;;;;;;;49.20;29.33;;;8.50;99.90;;;;;;5055508;28;20060;-84
2023/04/16 05:21:11;;;;;;;54.65;29.65;;;8.50;99.90;;;;;;5048112;28;20044;-85
2023/04/16 05:23:36;;;;;;;53.97;30.75;;;8.50;99.90;;;;;;5071592;28;20037;-84
2023/04/16 05:26:02;;;;;;;60.50;33.15;;;8.50;99.90;;;;;;5052398;28;20490;-85
2023/04/16 05:28:29;;;;;;;50.63;31.08;;;8.60;99.90;;;;;;5049988;28;20527;-83
2023/04/16 05:30:55;;;;;;;46.50;30.10;;;8.60;99.90;;;;;;5052012;28;20143;-83
2023/04/16 05:33:20;;;;;;;59.50;30.65;;;8.60;99.90;;;;;;5049214;28;20045;-83
2023/04/16 05:35:46;;;;;;;51.22;31.38;;;8.60;99.90;;;;;;5052248;28;20515;-83
2023/04/16 05:38:12;;;;;;;47.90;29.17;;;8.60;99.90;;;;;;5082318;28;20041;-83
2023/04/16 05:40:37;;;;;;;48.20;29.50;;;8.70;99.90;;;;;;5048718;28;20033;-84
2023/04/16 05:43:03;;;;;;;48.10;28.42;;;8.80;99.90;;;;;;5087902;28;20033;-83
2023/04/16 05:45:30;;;;;;;41.60;28.13;;;8.70;99.90;;;;;;5084575;28;20123;-83
2023/04/16 05:47:55;;;;;;;46.63;28.75;;;8.70;99.90;;;;;;5082557;28;20076;-83
2023/04/16 05:50:21;;;;;;;46.30;27.75;;;8.80;99.90;;;;;;5084609;28;20041;-83
2023/04/16 05:52:46;;;;;;;58.58;29.30;;;8.80;99.90;;;;;;5051906;28;20523;-83
2023/04/16 05:55:12;;;;;;;54.97;30.80;;;8.90;99.90;;;;;;5050116;28;20037;-83
2023/04/16 05:57:37;;;;;;;40.63;27.20;;;8.90;99.90;;;;;;5050604;28;20139;-83
2023/04/16 06:00:03;;;;;;;48.80;29.45;;;8.80;99.90;;;;;;5085320;28;20366;-82
2023/04/16 06:02:30;;;;;;;49.67;29.15;;;8.80;99.90;;;;;;5086620;28;20048;-83
2023/04/16 06:04:55;;;;;;;44.30;28.45;;;9.00;99.90;;;;;;5042887;28;20037;-83
2023/04/16 06:07:21;;;;;;;48.47;28.75;;;8.80;99.90;;;;;;5050089;28;20048;-83
2023/04/16 06:09:46;;;;;;;48.05;28.20;;;8.80;99.90;;;;;;5055003;28;20049;-83
2023/04/16 06:12:12;;;;;;;39.95;27.10;;;8.90;99.90;;;;;;5055618;28;20037;-81
2023/04/16 06:14:40;;;;;;;46.08;27.95;;;8.90;99.90;;;;;;5052343;28;20044;-84
2023/04/16 06:17:06;;;;;;;40.30;26.30;;;8.90;99.90;;;;;;5055007;28;20045;-83
2023/04/16 06:19:31;;;;;;;44.85;26.40;;;9.00;99.90;;;;;;5053480;28;20063;-83
2023/04/16 06:21:57;;;;;;;39.35;24.65;;;9.00;99.90;;;;;;5052281;28;20106;-84
2023/04/16 06:24:23;;;;;;;38.65;25.70;;;9.10;99.90;;;;;;5054079;28;20040;-84
2023/04/16 06:26:49;;;;;;;44.75;25.60;;;9.00;99.90;;;;;;5089792;28;20049;-83
2023/04/16 06:29:14;;;;;;;40.75;25.63;;;9.10;99.90;;;;;;5051126;28;20079;-82
2023/04/16 06:31:40;;;;;;;42.45;24.30;;;9.00;99.90;;;;;;5051440;28;20067;-83
2023/04/16 06:35:10;;;;;;;40.80;24.80;;;9.10;99.90;;;;;;5037502;28;20117;-83
2023/04/16 06:37:58;;;;;;;43.58;24.85;;;9.20;99.90;;;;;;5039898;28;20195;-84
2023/04/16 06:40:23;;;;;;;36.65;23.48;;;9.20;99.90;;;;;;5055652;28;20061;-84
2023/04/16 06:42:49;;;;;;;37.90;23.95;;;9.20;99.90;;;;;;5051657;28;20040;-85
2023/04/16 06:45:15;;;;;;;35.20;23.38;;;9.80;99.90;;;;;;5050803;28;20091;-84
2023/04/16 06:47:40;;;;;;;32.72;23.73;;;9.30;99.90;;;;;;5042117;28;20103;-83
2023/04/16 06:50:06;;;;;;;33.15;22.08;;;9.40;99.90;;;;;;5050410;28;20045;-83
2023/04/16 06:52:32;;;;;;;30.77;21.75;;;9.40;99.90;;;;;;5083276;28;20052;-83
2023/04/16 06:54:57;;;;;;;32.17;22.20;;;9.50;99.90;;;;;;5065435;28;20044;-83
2023/04/16 06:57:23;;;;;;;34.30;21.75;;;9.60;99.90;;;;;;5046382;28;20120;-86
2023/04/16 06:59:49;;;;;;;36.17;22.00;;;9.70;99.90;;;;;;5054898;28;20040;-83
2023/04/16 07:02:14;;;;;;;33.00;20.58;;;9.70;99.90;;;;;;5046159;28;20047;-81
2023/04/16 07:04:40;;;;;;;34.28;20.77;;;9.80;99.90;;;;;;5048265;28;20045;-82
2023/04/16 07:07:05;;;;;;;33.63;21.58;;;9.80;99.90;;;;;;5082831;28;20124;-83
2023/04/16 07:09:34;;;;;;;34.65;22.17;;;9.90;99.90;;;;;;5051332;28;20038;-84
2023/04/16 07:12:00;;;;;;;29.48;20.13;;;9.90;99.90;;;;;;5050327;28;20514;-81
2023/04/16 07:15:06;;;;;;;33.17;20.17;;;9.90;99.90;;;;;;5078414;28;20037;-86
2023/04/16 07:17:41;;;;;;;34.20;20.27;;;10.10;99.90;;;;;;5052057;28;20056;-84
2023/04/16 07:20:07;;;;;;;36.22;19.60;;;10.10;99.90;;;;;;5081476;28;20131;-84
2023/04/16 07:22:33;;;;;;;33.22;20.33;;;10.20;99.90;;;;;;5085592;28;20072;-84
2023/04/16 07:24:59;;;;;;;41.22;20.65;;;10.20;99.90;;;;;;5051693;28;20038;-84
2023/04/16 07:27:24;;;;;;;34.08;20.42;;;10.30;99.90;;;;;;5093420;28;20056;-84
2023/04/16 07:29:50;;;;;;;34.13;19.27;;;10.30;99.90;;;;;;5085511;28;20048;-85
2023/04/16 07:32:15;;;;;;;33.92;19.73;;;10.30;99.90;;;;;;5049789;28;20696;-84
2023/04/16 07:34:41;;;;;;;26.95;18.50;;;10.30;99.90;;;;;;5056941;28;20124;-84
2023/04/16 07:37:07;;;;;;;29.67;17.98;;;10.30;99.90;;;;;;5087030;28;20084;-84
2023/04/16 07:39:33;;;;;;;32.88;19.90;;;10.30;99.90;;;;;;5087047;28;20041;-84
2023/04/16 07:41:58;;;;;;;37.22;18.55;;;10.30;99.90;;;;;;5058292;28;20487;-84
2023/04/16 07:44:24;;;;;;;29.83;19.42;;;10.60;99.90;;;;;;5083132;28;20461;-84
2023/04/16 07:46:50;;;;;;;34.72;19.23;;;10.70;99.90;;;;;;5080942;28;20045;-84
2023/04/16 07:49:15;;;;;;;32.38;17.92;;;10.70;99.90;;;;;;5047661;28;20095;-86
2023/04/16 07:51:41;;;;;;;32.97;19.05;;;10.80;99.90;;;;;;5076005;28;20116;-83
2023/04/16 07:54:07;;;;;;;38.92;19.85;;;10.80;99.90;;;;;;5084140;28;20055;-84
2023/04/16 07:56:32;;;;;;;29.60;18.65;;;10.80;99.90;;;;;;5052591;28;20056;-84
2023/04/16 07:58:58;;;;;;;33.55;19.02;;;10.90;99.90;;;;;;5043984;28;20055;-83
2023/04/16 08:01:23;;;;;;;33.15;19.40;;;11.00;99.90;;;;;;5080697;28;20037;-84
2023/04/16 08:03:50;;;;;;;31.77;18.63;;;11.00;99.90;;;;;;5050733;28;20036;-84
2023/04/16 08:06:16;;;;;;;36.67;20.10;;;11.00;99.90;;;;;;5047097;28;20037;-84
2023/04/16 08:08:41;;;;;;;34.08;19.05;;;11.00;99.90;;;;;;5042404;28;20469;-85
2023/04/16 08:11:07;;;;;;;36.38;20.65;;;11.10;99.90;;;;;;5081438;28;20490;-85
2023/04/16 08:13:36;;;;;;;35.05;18.95;;;11.20;99.90;;;;;;5049686;28;20376;-85
2023/04/16 08:16:01;;;;;;;33.38;17.58;;;11.40;99.90;;;;;;5021504;28;20053;-85
2023/04/16 08:18:27;;;;;;;28.35;17.48;;;11.10;99.90;;;;;;5076007;28;20385;-86
2023/04/16 08:20:52;;;;;;;25.75;17.50;;;11.10;99.90;;;;;;5045728;28;20082;-85
2023/04/16 08:23:18;;;;;;;33.15;18.08;;;11.20;99.90;;;;;;5079823;28;20036;-86
2023/04/16 08:25:44;;;;;;;34.40;19.00;;;11.10;99.90;;;;;;5091116;28;20067;-85
2023/04/16 08:28:10;;;;;;;31.95;16.95;;;11.10;99.90;;;;;;5055737;28;20055;-85
2023/04/16 08:30:36;;;;;;;31.05;18.02;;;11.20;99.90;;;;;;5057401;28;20052;-85
2023/04/16 08:33:01;;;;;;;31.05;18.70;;;11.10;99.90;;;;;;5047451;28;20044;-85
2023/04/16 08:35:27;;;;;;;30.02;16.77;;;11.20;99.90;;;;;;5046809;28;20049;-85
2023/04/16 08:37:53;;;;;;;30.52;16.27;;;11.30;99.90;;;;;;5054357;28;20124;-85
2023/04/16 08:40:18;;;;;;;30.27;17.55;;;11.30;99.90;;;;;;5062231;28;20070;-85
2023/04/16 08:42:47;;;;;;;29.20;17.23;;;11.30;99.90;;;;;;5044566;28;20223;-85
2023/04/16 08:45:16;;;;;;;27.25;15.85;;;11.40;99.90;;;;;;5061395;28;20033;-86
2023/04/16 08:47:46;;;;;;;24.23;15.60;;;11.60;99.90;;;;;;5047097;28;20049;-85
2023/04/16 08:50:15;;;;;;;32.63;16.40;;;11.90;99.90;;;;;;5049828;28;20068;-85
2023/04/16 08:52:52;;;;;;;32.85;15.40;;;12.00;99.90;;;;;;5054872;28;21535;-85
2023/04/16 08:55:39;;;;;;;23.55;14.85;;;12.10;99.90;;;;;;5047066;28;20032;-85
2023/04/16 08:58:12;;;;;;;26.20;15.65;;;13.00;99.90;;;;;;5046021;28;20155;-85
2023/04/16 09:00:40;;;;;;;24.33;15.73;;;12.90;99.90;;;;;;5057877;28;20047;-85
2023/04/16 09:03:08;;;;;;;26.02;14.45;;;12.60;99.90;;;;;;5046495;28;20111;-84
2023/04/16 09:05:34;;;;;;;24.02;14.50;;;12.80;99.90;;;;;;5046341;28;20038;-84
2023/04/16 09:08:00;;;;;;;23.73;14.02;;;13.10;99.90;;;;;;5055078;28;20379;-84
2023/04/16 09:10:26;;;;;;;21.23;13.63;;;13.50;99.90;;;;;;5049966;28;20047;-84
2023/04/16 09:12:54;;;;;;;20.80;13.63;;;13.90;99.90;;;;;;5049807;28;20499;-84
2023/04/16 09:15:20;;;;;;;20.15;12.00;;;14.50;99.90;;;;;;5048379;28;20049;-85
2023/04/16 09:17:46;;;;;;;21.27;12.32;;;14.80;99.90;;;;;;5046037;28;20085;-84
2023/04/16 09:20:11;;;;;;;18.88;12.45;;;15.10;99.90;;;;;;5040380;28;20416;-85
2023/04/16 09:22:39;;;;;;;16.38;11.02;;;15.40;99.90;;;;;;5066104;28;20041;-85
2023/04/16 09:25:05;;;;;;;17.25;10.98;;;15.60;99.90;;;;;;5056896;28;20045;-84
2023/04/16 09:27:31;;;;;;;17.25;11.43;;;15.90;99.90;;;;;;5080628;28;20037;-85
2023/04/16 09:29:57;;;;;;;19.02;11.93;;;16.00;99.90;;;;;;5049414;28;20059;-85
2023/04/16 09:32:27;;;;;;;17.15;11.50;;;16.10;99.90;;;;;;5045422;28;20049;-85
2023/04/16 09:35:02;;;;;;;19.30;11.65;;;16.40;99.90;;;;;;5046831;28;20041;-86
2023/04/16 09:37:29;;;;;;;18.02;11.27;;;16.30;99.90;;;;;;5086190;28;20056;-85
2023/04/16 09:39:57;;;;;;;14.18;12.07;;;16.30;99.90;;;;;;5052422;28;20045;-85
2023/04/16 09:42:26;;;;;;;17.25;10.98;;;16.20;99.90;;;;;;5065616;28;20049;-84
2023/04/16 09:44:52;;;;;;;18.70;10.40;;;16.30;99.90;;;;;;5083457;28;20045;-85
2023/04/16 09:47:18;;;;;;;16.90;11.43;;;15.90;99.90;;;;;;5046079;28;20622;-85
2023/04/16 09:49:45;;;;;;;21.05;11.57;;;15.40;99.90;;;;;;5070259;28;20037;-85
2023/04/16 09:52:21;;;;;;;17.48;12.73;;;15.30;99.90;;;;;;5079508;28;20041;-85
2023/04/16 09:54:48;;;;;;;21.10;12.80;;;15.30;99.90;;;;;;5046745;28;20666;-83
2023/04/16 09:57:17;;;;;;;18.33;11.45;;;15.60;99.90;;;;;;5078892;28;20048;-85
2023/04/16 09:59:43;;;;;;;23.42;12.65;;;15.90;99.90;;;;;;5049532;28;20041;-85
2023/04/16 10:02:08;;;;;;;17.00;11.13;;;16.20;99.90;;;;;;5081904;28;20091;-85
2023/04/16 10:04:54;;;;;;;16.63;11.30;;;16.30;99.90;;;;;;5057026;28;20041;-85
2023/04/16 10:07:20;;;;;;;;;;;16.20;99.90;;;;;;5050249;28;20053;-85
2023/04/16 10:09:47;;;;;;;18.67;11.02;;;16.00;99.90;;;;;;5064346;28;19916;-85
2023/04/16 10:12:14;;;;;;;20.92;11.25;;;16.10;99.90;;;;;;5051665;28;20498;-85
2023/04/16 10:14:40;;;;;;;17.88;12.05;;;16.00;99.90;;;;;;5087293;28;20060;-85
2023/04/16 10:17:07;;;;;;;22.75;11.18;;;16.00;99.90;;;;;;5047861;28;20045;-85
2023/04/16 10:19:34;;;;;;;23.25;11.68;;;16.10;99.90;;;;;;5051245;28;20484;-85
2023/04/16 10:22:00;;;;;;;18.45;11.10;;;16.20;99.90;;;;;;5055851;28;20068;-84
2023/04/16 10:24:28;;;;;;;18.80;11.27;;;16.30;99.90;;;;;;5050016;28;20033;-85
2023/04/16 10:26:54;;;;;;;18.25;11.07;;;16.20;99.90;;;;;;5089606;28;20063;-84
2023/04/16 10:29:21;;;;;;;17.77;11.27;;;16.30;99.90;;;;;;5062434;28;20141;-84
2023/04/16 10:31:47;;;;;;;22.58;11.75;;;16.30;99.90;;;;;;5097753;28;20057;-84
2023/04/16 10:34:15;;;;;;;16.52;9.93;;;16.40;99.90;;;;;;5085841;28;20124;-84
2023/04/16 10:36:40;;;;;;;20.15;11.55;;;16.40;99.90;;;;;;5051777;28;20052;-85
2023/04/16 10:39:11;;;;;;;22.80;11.40;;;16.40;99.90;;;;;;5056916;28;20531;-84
2023/04/16 10:41:37;;;;;;;21.65;12.52;;;16.40;99.90;;;;;;5055206;28;20049;-84
2023/04/16 10:44:11;;;;;;;17.13;11.30;;;16.40;99.90;;;;;;5050513;28;20040;-84
2023/04/16 10:46:45;;;;;;;17.02;10.68;;;16.40;99.90;;;;;;5050220;28;20033;-84
2023/04/16 10:49:23;;;;;;;22.00;10.60;;;16.40;99.90;;;;;;5048241;28;20037;-84
2023/04/16 10:51:56;;;;;;;17.15;10.63;;;16.40;99.90;;;;;;5061070;28;20522;-85
2023/04/16 10:54:33;;;;;;;14.95;10.52;;;16.20;99.90;;;;;;5053601;28;20045;-85
2023/04/16 10:57:03;;;;;;;17.48;11.18;;;16.30;99.90;;;;;;5051697;28;20049;-85
2023/04/16 10:59:40;;;;;;;15.68;10.65;;;16.30;99.90;;;;;;5053254;28;20495;-84
2023/04/16 11:02:08;;;;;;;18.20;10.25;;;16.30;99.90;;;;;;5085075;28;20499;-85
2023/04/16 11:04:33;;;;;;;20.77;10.48;;;16.20;99.90;;;;;;5037719;28;20788;-84
2023/04/16 11:07:17;;;;;;;16.48;10.63;;;16.30;99.90;;;;;;5051068;28;20045;-84
2023/04/16 11:09:52;;;;;;;18.38;10.82;;;16.30;99.90;;;;;;5054989;28;20056;-84
2023/04/16 11:12:32;;;;;;;17.83;10.02;;;16.40;99.90;;;;;;5072166;28;20123;-84
2023/04/16 11:15:00;;;;;;;15.93;10.85;;;16.40;99.90;;;;;;5049811;28;20399;-85
2023/04/16 11:17:37;;;;;;;18.67;10.88;;;16.20;99.90;;;;;;5050215;28;20377;-85
2023/04/16 11:20:05;;;;;;;16.92;10.88;;;16.20;99.90;;;;;;5045537;28;20094;-85
2023/04/16 11:22:35;;;;;;;14.00;10.55;;;16.10;99.90;;;;;;5079332;28;20633;-85
2023/04/16 11:25:01;;;;;;;14.50;10.57;;;16.10;99.90;;;;;;5045596;28;20074;-85
2023/04/16 11:27:28;;;;;;;16.92;10.70;;;16.10;99.90;;;;;;5082051;28;20132;-84
2023/04/16 11:30:03;;;;;;;19.38;10.63;;;16.20;99.90;;;;;;5049686;28;20051;-85
2023/04/16 11:32:33;;;;;;;15.95;11.15;;;16.20;99.90;;;;;;5048772;28;20063;-85
2023/04/16 11:35:02;;;;;;;24.70;10.88;;;16.20;99.90;;;;;;5036442;28;20138;-85
2023/04/16 11:37:33;;;;;;;18.65;10.55;;;16.10;99.90;;;;;;5087973;28;20106;-86
2023/04/16 11:39:58;;;;;;;15.23;9.57;;;16.20;99.90;;;;;;5067306;28;20041;-85
2023/04/16 11:42:27;;;;;;;15.40;8.80;;;16.20;99.90;;;;;;5041584;28;20044;-85
2023/04/16 11:44:59;;;;;;;16.05;10.57;;;16.20;99.90;;;;;;5084395;28;20084;-85
2023/04/16 11:47:25;;;;;;;14.30;9.90;;;16.20;99.90;;;;;;5050611;28;20037;-85
2023/04/16 11:49:52;;;;;;;17.80;11.02;;;16.30;99.90;;;;;;5029638;28;20100;-86
2023/04/16 11:52:28;;;;;;;14.20;10.85;;;16.20;99.90;;;;;;5047612;28;20040;-85
2023/04/16 11:54:54;;;;;;;18.58;10.93;;;16.40;99.90;;;;;;5059129;28;20047;-85
2023/04/16 11:57:27;;;;;;;19.17;11.65;;;16.20;99.90;;;;;;5065831;28;20120;-86
2023/04/16 11:59:57;;;;;;;22.55;12.73;;;16.10;99.90;;;;;;5059794;28;20044;-86
2023/04/16 12:02:39;;;;;;;20.52;11.32;;;16.20;99.90;;;;;;5071424;28;20056;-88
2023/04/16 12:05:07;;;;;;;20.35;11.68;;;16.00;99.90;;;;;;5053782;28;20363;-86
2023/04/16 12:07:45;;;;;;;21.33;11.60;;;16.00;99.90;;;;;;5070625;28;20065;-87
2023/04/16 12:10:11;;;;;;;27.15;13.73;;;16.00;99.90;;;;;;5069712;28;20124;-87
2023/04/16 12:12:37;;;;;;;23.67;11.63;;;16.10;99.90;;;;;;5087721;28;20060;-86
2023/04/16 12:15:03;;;;;;;25.70;12.98;;;16.10;99.90;;;;;;5090888;28;20112;-86
2023/04/16 12:21:46;;;;;;;20.63;11.40;;;16.20;99.90;;;;;;5033649;28;20064;-86
2023/04/16 12:24:14;;;;;;;19.43;11.50;;;16.30;99.90;;;;;;5071409;28;20103;-88
2023/04/16 12:26:45;;;;;;;22.05;12.93;;;16.50;99.90;;;;;;5088337;28;20083;-84
2023/04/16 12:29:18;;;;;;;19.30;11.13;;;16.60;99.90;;;;;;5071013;28;20068;-89
2023/04/16 12:31:45;;;;;;;20.60;12.55;;;16.50;99.90;;;;;;5071508;28;20029;-87
2023/04/16 12:34:11;;;;;;;21.08;10.90;;;16.60;99.90;;;;;;5068716;28;20095;-86
2023/04/16 12:36:37;;;;;;;17.77;10.93;;;16.50;99.90;;;;;;5065940;28;20118;-86
2023/04/16 12:39:03;;;;;;;19.17;11.05;;;16.40;99.90;;;;;;5049144;28;20076;-85